sensor_id;sensor_type;location;lat;lon;timestamp;temperature;humidity
11748;DHT22;5931;48.832;9.072;2023-04-03T00:00:18;3.60;99.90
11748;DHT22;5931;48.832;9.072;2023-04-03T00:02:44;3.60;99.90
11748;DHT22;5931;48.832;9.072;2023-04-03T00:05:10;3.60;99.90
11748;DHT22;5931;48.832;9.072;2023-04-03T00:07:35;3.60;99.90
11748;DHT22;5931;48.832;9.072;2023-04-03T00:10:01;3.50;99.90
11748;DHT22;5931;48.832;9.072;2023-04-03T00:12:27;3.50;99.90
11748;DHT22;5931;48.832;9.072;2023-04-03T00:14:52;3.40;99.90
11748;DHT22;5931;48.832;9.072;2023-04-03T00:17:18;3.50;99.90
11748;DHT22;5931;48.832;9.072;2023-04-03T00:19:44;3.40;99.90
11748;DHT22;5931;48.832;9.072;2023-04-03T00:22:09;3.50;99.90
11748;DHT22;5931;48.832;9.072;2023-04-03T00:24:35;3.50;99.90
11748;DHT22;5931;48.832;9.072;2023-04-03T00:27:01;3.50;99.90
11748;DHT22;5931;48.832;9.072;2023-04-03T00:29:26;3.50;99.90
11748;DHT22;5931;48.832;9.072;2023-04-03T00:31:52;3.50;99.90
11748;DHT22;5931;48.832;9.072;2023-04-03T00:34:18;3.50;99.90
11748;DHT22;5931;48.832;9.072;2023-04-03T00:36:43;3.50;99.90
11748;DHT22;5931;48.832;9.072;2023-04-03T00:39:09;3.50;99.90
11748;DHT22;5931;48.832;9.072;2023-04-03T00:41:35;3.50;99.90
11748;DHT22;5931;48.832;9.072;2023-04-03T00:44:17;3.50;99.90
11748;DHT22;5931;48.832;9.072;2023-04-03T00:46:43;3.40;99.90
11748;DHT22;5931;48.832;9.072;2023-04-03T00:49:08;3.40;99.90
11748;DHT22;5931;48.832;9.072;2023-04-03T00:51:35;3.30;99.90
11748;DHT22;5931;48.832;9.072;2023-04-03T00:54:02;3.30;99.90
11748;DHT22;5931;48.832;9.072;2023-04-03T00:56:30;3.30;99.90
11748;DHT22;5931;48.832;9.072;2023-04-03T00:59:18;3.40;99.90
11748;DHT22;5931;48.832;9.072;2023-04-03T01:01:48;3.40;99.90
11748;DHT22;5931;48.832;9.072;2023-04-03T01:04:31;3.30;99.90
11748;DHT22;5931;48.832;9.072;2023-04-03T01:07:09;3.30;99.90
11748;DHT22;5931;48.832;9.072;2023-04-03T01:09:36;3.30;99.90
11748;DHT22;5931;48.832;9.072;2023-04-03T01:14:51;3.30;99.90
11748;DHT22;5931;48.832;9.072;2023-04-03T01:17:29;3.20;99.90
11748;DHT22;5931;48.832;9.072;2023-04-03T01:25:55;3.20;99.90
11748;DHT22;5931;48.832;9.072;2023-04-03T01:28:26;3.10;99.90
11748;DHT22;5931;48.832;9.072;2023-04-03T01:33:36;3.10;99.90
11748;DHT22;5931;48.832;9.072;2023-04-03T01:36:03;3.10;99.90
11748;DHT22;5931;48.832;9.072;2023-04-03T01:38:30;3.00;99.90
11748;DHT22;5931;48.832;9.072;2023-04-03T01:40:55;3.00;99.90
11748;DHT22;5931;48.832;9.072;2023-04-03T01:43:21;3.00;99.90
11748;DHT22;5931;48.832;9.072;2023-04-03T01:45:47;3.10;99.90
11748;DHT22;5931;48.832;9.072;2023-04-03T01:48:15;3.00;99.90
11748;DHT22;5931;48.832;9.072;2023-04-03T01:50:41;3.00;99.90
11748;DHT22;5931;48.832;9.072;2023-04-03T01:53:08;3.00;99.90
11748;DHT22;5931;48.832;9.072;2023-04-03T01:55:33;3.00;99.90
11748;DHT22;5931;48.832;9.072;2023-04-03T01:57:59;2.90;99.90
11748;DHT22;5931;48.832;9.072;2023-04-03T02:00:25;2.90;99.90
11748;DHT22;5931;48.832;9.072;2023-04-03T02:02:52;2.90;99.90
11748;DHT22;5931;48.832;9.072;2023-04-03T02:05:18;3.00;99.90
11748;DHT22;5931;48.832;9.072;2023-04-03T02:07:44;3.00;99.90
11748;DHT22;5931;48.832;9.072;2023-04-03T02:10:10;3.00;99.90
11748;DHT22;5931;48.832;9.072;2023-04-03T02:12:35;3.10;99.90
11748;DHT22;5931;48.832;9.072;2023-04-03T02:15:01;3.10;99.90
11748;DHT22;5931;48.832;9.072;2023-04-03T02:17:27;3.10;99.90
11748;DHT22;5931;48.832;9.072;2023-04-03T02:19:54;3.00;99.90
11748;DHT22;5931;48.832;9.072;2023-04-03T02:22:20;3.10;99.90
11748;DHT22;5931;48.832;9.072;2023-04-03T02:24:46;3.10;99.90
11748;DHT22;5931;48.832;9.072;2023-04-03T02:27:11;3.10;99.90
11748;DHT22;5931;48.832;9.072;2023-04-03T02:29:37;3.00;99.90
11748;DHT22;5931;48.832;9.072;2023-04-03T02:32:04;3.00;99.90
11748;DHT22;5931;48.832;9.072;2023-04-03T02:34:31;3.00;99.90
11748;DHT22;5931;48.832;9.072;2023-04-03T02:36:58;2.90;99.90
11748;DHT22;5931;48.832;9.072;2023-04-03T02:39:24;2.90;99.90
11748;DHT22;5931;48.832;9.072;2023-04-03T02:41:50;2.90;99.90
11748;DHT22;5931;48.832;9.072;2023-04-03T02:44:21;2.90;99.90
11748;DHT22;5931;48.832;9.072;2023-04-03T02:46:49;2.90;99.90
11748;DHT22;5931;48.832;9.072;2023-04-03T02:49:14;2.90;99.90
11748;DHT22;5931;48.832;9.072;2023-04-03T02:51:41;2.90;99.90
11748;DHT22;5931;48.832;9.072;2023-04-03T02:54:07;3.00;99.90
11748;DHT22;5931;48.832;9.072;2023-04-03T02:56:35;3.00;99.90
11748;DHT22;5931;48.832;9.072;2023-04-03T02:59:01;3.00;99.90
11748;DHT22;5931;48.832;9.072;2023-04-03T03:01:27;3.00;99.90
11748;DHT22;5931;48.832;9.072;2023-04-03T03:03:57;3.00;99.90
11748;DHT22;5931;48.832;9.072;2023-04-03T03:06:23;3.00;99.90
11748;DHT22;5931;48.832;9.072;2023-04-03T03:08:49;3.00;99.90
11748;DHT22;5931;48.832;9.072;2023-04-03T03:11:14;3.00;99.90
11748;DHT22;5931;48.832;9.072;2023-04-03T03:13:40;3.00;99.90
11748;DHT22;5931;48.832;9.072;2023-04-03T03:16:07;3.10;99.90
11748;DHT22;5931;48.832;9.072;2023-04-03T03:18:34;3.10;99.90
11748;DHT22;5931;48.832;9.072;2023-04-03T03:21:02;3.10;99.90
11748;DHT22;5931;48.832;9.072;2023-04-03T03:23:29;3.20;99.90
11748;DHT22;5931;48.832;9.072;2023-04-03T03:26:04;3.20;99.90
11748;DHT22;5931;48.832;9.072;2023-04-03T03:28:33;3.20;99.90
11748;DHT22;5931;48.832;9.072;2023-04-03T03:31:00;3.20;99.90
11748;DHT22;5931;48.832;9.072;2023-04-03T03:33:26;3.20;99.90
11748;DHT22;5931;48.832;9.072;2023-04-03T03:35:53;3.30;99.90
11748;DHT22;5931;48.832;9.072;2023-04-03T03:38:19;3.30;99.90
11748;DHT22;5931;48.832;9.072;2023-04-03T03:40:47;3.20;99.90
11748;DHT22;5931;48.832;9.072;2023-04-03T03:43:13;3.30;99.90
11748;DHT22;5931;48.832;9.072;2023-04-03T03:45:39;3.30;99.90
11748;DHT22;5931;48.832;9.072;2023-04-03T03:48:05;3.30;99.90
11748;DHT22;5931;48.832;9.072;2023-04-03T03:50:31;3.30;99.90
11748;DHT22;5931;48.832;9.072;2023-04-03T03:52:56;3.30;99.90
11748;DHT22;5931;48.832;9.072;2023-04-03T03:55:22;3.30;99.90
11748;DHT22;5931;48.832;9.072;2023-04-03T03:57:51;3.30;99.90
11748;DHT22;5931;48.832;9.072;2023-04-03T04:00:17;3.20;99.90
11748;DHT22;5931;48.832;9.072;2023-04-03T04:02:50;3.30;99.90
11748;DHT22;5931;48.832;9.072;2023-04-03T04:05:19;3.30;99.90
11748;DHT22;5931;48.832;9.072;2023-04-03T04:07:45;3.30;99.90
11748;DHT22;5931;48.832;9.072;2023-04-03T04:10:11;3.30;99.90
11748;DHT22;5931;48.832;9.072;2023-04-03T04:12:37;3.30;99.90
11748;DHT22;5931;48.832;9.072;2023-04-03T04:15:03;3.30;99.90
11748;DHT22;5931;48.832;9.072;2023-04-03T04:17:29;3.30;99.90
11748;DHT22;5931;48.832;9.072;2023-04-03T04:19:55;3.30;99.90
11748;DHT22;5931;48.832;9.072;2023-04-03T04:22:21;3.30;99.90
11748;DHT22;5931;48.832;9.072;2023-04-03T04:24:47;3.30;99.90
11748;DHT22;5931;48.832;9.072;2023-04-03T04:27:13;3.30;99.90
11748;DHT22;5931;48.832;9.072;2023-04-03T04:29:39;3.30;99.90
11748;DHT22;5931;48.832;9.072;2023-04-03T04:32:06;3.30;99.90
11748;DHT22;5931;48.832;9.072;2023-04-03T04:34:32;3.30;99.90
11748;DHT22;5931;48.832;9.072;2023-04-03T04:36:59;3.30;99.90
11748;DHT22;5931;48.832;9.072;2023-04-03T04:39:26;3.30;99.90
11748;DHT22;5931;48.832;9.072;2023-04-03T04:41:54;3.30;99.90
11748;DHT22;5931;48.832;9.072;2023-04-03T04:44:21;3.30;99.90
11748;DHT22;5931;48.832;9.072;2023-04-03T04:46:47;3.30;99.90
11748;DHT22;5931;48.832;9.072;2023-04-03T04:49:12;3.40;99.90
11748;DHT22;5931;48.832;9.072;2023-04-03T04:51:38;3.40;99.90
11748;DHT22;5931;48.832;9.072;2023-04-03T04:54:04;3.40;99.90
11748;DHT22;5931;48.832;9.072;2023-04-03T04:56:31;3.40;99.90
11748;DHT22;5931;48.832;9.072;2023-04-03T04:58:58;3.40;99.90
11748;DHT22;5931;48.832;9.072;2023-04-03T05:01:24;3.40;99.90
11748;DHT22;5931;48.832;9.072;2023-04-03T05:04:14;3.40;99.90
11748;DHT22;5931;48.832;9.072;2023-04-03T05:06:40;3.40;99.90
11748;DHT22;5931;48.832;9.072;2023-04-03T05:09:11;3.30;99.90
11748;DHT22;5931;48.832;9.072;2023-04-03T05:11:37;3.30;99.90
11748;DHT22;5931;48.832;9.072;2023-04-03T05:14:04;3.40;99.90
11748;DHT22;5931;48.832;9.072;2023-04-03T05:16:33;3.40;99.90
11748;DHT22;5931;48.832;9.072;2023-04-03T05:18:58;3.40;99.90
11748;DHT22;5931;48.832;9.072;2023-04-03T05:21:24;3.40;99.90
11748;DHT22;5931;48.832;9.072;2023-04-03T05:23:52;3.50;99.90
11748;DHT22;5931;48.832;9.072;2023-04-03T05:26:18;3.40;99.90
11748;DHT22;5931;48.832;9.072;2023-04-03T05:28:46;3.50;99.90
11748;DHT22;5931;48.832;9.072;2023-04-03T05:31:13;3.50;99.90
11748;DHT22;5931;48.832;9.072;2023-04-03T05:33:38;3.50;99.90
11748;DHT22;5931;48.832;9.072;2023-04-03T05:36:08;3.50;99.90
11748;DHT22;5931;48.832;9.072;2023-04-03T05:38:39;3.50;99.90
11748;DHT22;5931;48.832;9.072;2023-04-03T05:41:05;3.50;99.90
11748;DHT22;5931;48.832;9.072;2023-04-03T05:43:31;3.40;99.90
11748;DHT22;5931;48.832;9.072;2023-04-03T05:45:59;3.40;99.90
11748;DHT22;5931;48.832;9.072;2023-04-03T05:48:27;3.40;99.90
11748;DHT22;5931;48.832;9.072;2023-04-03T05:50:53;3.40;99.90
11748;DHT22;5931;48.832;9.072;2023-04-03T05:53:26;3.40;99.90
11748;DHT22;5931;48.832;9.072;2023-04-03T05:55:53;3.50;99.90
11748;DHT22;5931;48.832;9.072;2023-04-03T05:58:20;3.50;99.90
11748;DHT22;5931;48.832;9.072;2023-04-03T06:00:47;3.50;99.90
11748;DHT22;5931;48.832;9.072;2023-04-03T06:03:14;3.50;99.90
11748;DHT22;5931;48.832;9.072;2023-04-03T06:05:39;3.60;99.90
11748;DHT22;5931;48.832;9.072;2023-04-03T06:08:05;3.50;99.90
11748;DHT22;5931;48.832;9.072;2023-04-03T06:10:32;3.60;99.90
11748;DHT22;5931;48.832;9.072;2023-04-03T06:12:57;3.60;99.90
11748;DHT22;5931;48.832;9.072;2023-04-03T06:15:23;3.70;99.90
11748;DHT22;5931;48.832;9.072;2023-04-03T06:17:50;3.70;99.90
11748;DHT22;5931;48.832;9.072;2023-04-03T06:20:15;3.80;99.90
11748;DHT22;5931;48.832;9.072;2023-04-03T06:22:41;3.80;99.90
11748;DHT22;5931;48.832;9.072;2023-04-03T06:25:07;3.80;99.90
11748;DHT22;5931;48.832;9.072;2023-04-03T06:27:33;4.00;99.90
11748;DHT22;5931;48.832;9.072;2023-04-03T06:29:59;4.10;99.90
11748;DHT22;5931;48.832;9.072;2023-04-03T06:32:24;4.10;99.90
11748;DHT22;5931;48.832;9.072;2023-04-03T06:34:50;4.10;99.90
11748;DHT22;5931;48.832;9.072;2023-04-03T06:37:18;4.20;99.90
11748;DHT22;5931;48.832;9.072;2023-04-03T06:39:44;4.10;99.90
11748;DHT22;5931;48.832;9.072;2023-04-03T06:42:10;4.20;99.90
11748;DHT22;5931;48.832;9.072;2023-04-03T06:44:44;4.30;99.90
11748;DHT22;5931;48.832;9.072;2023-04-03T06:47:14;4.40;99.90
11748;DHT22;5931;48.832;9.072;2023-04-03T06:49:41;4.30;99.90
11748;DHT22;5931;48.832;9.072;2023-04-03T06:52:07;4.30;99.90
11748;DHT22;5931;48.832;9.072;2023-04-03T06:54:33;4.30;99.90
11748;DHT22;5931;48.832;9.072;2023-04-03T06:56:59;4.20;99.90
11748;DHT22;5931;48.832;9.072;2023-04-03T06:59:25;4.20;99.90
11748;DHT22;5931;48.832;9.072;2023-04-03T07:01:51;4.20;99.90
11748;DHT22;5931;48.832;9.072;2023-04-03T07:04:16;4.20;99.90
11748;DHT22;5931;48.832;9.072;2023-04-03T07:06:42;4.20;99.90
11748;DHT22;5931;48.832;9.072;2023-04-03T07:09:09;4.20;99.90
11748;DHT22;5931;48.832;9.072;2023-04-03T07:11:35;4.30;99.90
11748;DHT22;5931;48.832;9.072;2023-04-03T07:14:02;4.20;99.90
11748;DHT22;5931;48.832;9.072;2023-04-03T07:16:27;4.30;99.90
11748;DHT22;5931;48.832;9.072;2023-04-03T07:18:53;4.50;99.90
11748;DHT22;5931;48.832;9.072;2023-04-03T07:21:19;4.40;99.90
11748;DHT22;5931;48.832;9.072;2023-04-03T07:23:45;4.40;99.90
11748;DHT22;5931;48.832;9.072;2023-04-03T07:26:11;4.50;99.90
11748;DHT22;5931;48.832;9.072;2023-04-03T07:28:36;4.60;99.90
11748;DHT22;5931;48.832;9.072;2023-04-03T07:31:07;4.90;99.90
11748;DHT22;5931;48.832;9.072;2023-04-03T07:33:35;4.90;99.90
11748;DHT22;5931;48.832;9.072;2023-04-03T07:36:01;4.90;99.90
11748;DHT22;5931;48.832;9.072;2023-04-03T07:38:27;4.80;99.90
11748;DHT22;5931;48.832;9.072;2023-04-03T07:40:53;4.80;99.90
11748;DHT22;5931;48.832;9.072;2023-04-03T07:43:20;4.90;99.90
11748;DHT22;5931;48.832;9.072;2023-04-03T07:45:47;5.10;99.90
11748;DHT22;5931;48.832;9.072;2023-04-03T07:48:17;5.20;99.90
11748;DHT22;5931;48.832;9.072;2023-04-03T07:50:44;5.00;99.90
11748;DHT22;5931;48.832;9.072;2023-04-03T07:53:10;4.80;99.90
11748;DHT22;5931;48.832;9.072;2023-04-03T07:55:36;4.90;99.90
11748;DHT22;5931;48.832;9.072;2023-04-03T07:58:09;5.10;99.90
11748;DHT22;5931;48.832;9.072;2023-04-03T08:00:36;5.30;99.90
11748;DHT22;5931;48.832;9.072;2023-04-03T08:03:02;5.50;99.90
11748;DHT22;5931;48.832;9.072;2023-04-03T08:05:30;5.60;99.90
11748;DHT22;5931;48.832;9.072;2023-04-03T08:07:56;5.70;99.90
11748;DHT22;5931;48.832;9.072;2023-04-03T08:10:22;5.80;99.90
11748;DHT22;5931;48.832;9.072;2023-04-03T08:12:48;5.70;99.90
11748;DHT22;5931;48.832;9.072;2023-04-03T08:15:14;5.50;99.90
11748;DHT22;5931;48.832;9.072;2023-04-03T08:17:40;5.60;99.90
11748;DHT22;5931;48.832;9.072;2023-04-03T08:20:06;5.50;99.90
11748;DHT22;5931;48.832;9.072;2023-04-03T08:22:33;5.60;99.90
11748;DHT22;5931;48.832;9.072;2023-04-03T08:24:59;5.80;99.90
11748;DHT22;5931;48.832;9.072;2023-04-03T08:27:25;6.00;99.90
11748;DHT22;5931;48.832;9.072;2023-04-03T08:29:51;5.80;99.90
11748;DHT22;5931;48.832;9.072;2023-04-03T08:32:17;5.50;99.90
11748;DHT22;5931;48.832;9.072;2023-04-03T08:34:43;5.60;99.90
11748;DHT22;5931;48.832;9.072;2023-04-03T08:37:09;5.60;99.90
11748;DHT22;5931;48.832;9.072;2023-04-03T08:39:35;5.90;99.90
11748;DHT22;5931;48.832;9.072;2023-04-03T08:42:13;5.90;99.90
11748;DHT22;5931;48.832;9.072;2023-04-03T08:45:37;5.70;99.90
11748;DHT22;5931;48.832;9.072;2023-04-03T08:48:05;5.60;99.90
11748;DHT22;5931;48.832;9.072;2023-04-03T08:50:41;5.60;99.90
11748;DHT22;5931;48.832;9.072;2023-04-03T08:53:14;5.80;99.90
11748;DHT22;5931;48.832;9.072;2023-04-03T08:55:45;5.90;99.90
11748;DHT22;5931;48.832;9.072;2023-04-03T08:58:26;5.90;99.90
11748;DHT22;5931;48.832;9.072;2023-04-03T09:01:06;6.00;99.90
11748;DHT22;5931;48.832;9.072;2023-04-03T09:03:36;6.30;99.90
11748;DHT22;5931;48.832;9.072;2023-04-03T09:06:13;6.40;99.90
11748;DHT22;5931;48.832;9.072;2023-04-03T09:14:42;6.60;99.90
11748;DHT22;5931;48.832;9.072;2023-04-03T09:22:51;7.10;99.90
11748;DHT22;5931;48.832;9.072;2023-04-03T09:25:28;7.10;99.90
11748;DHT22;5931;48.832;9.072;2023-04-03T09:27:56;7.10;99.90
11748;DHT22;5931;48.832;9.072;2023-04-03T09:30:25;6.80;99.90
11748;DHT22;5931;48.832;9.072;2023-04-03T09:32:54;6.90;99.90
11748;DHT22;5931;48.832;9.072;2023-04-03T09:35:24;7.10;99.90
11748;DHT22;5931;48.832;9.072;2023-04-03T09:38:00;7.10;99.90
11748;DHT22;5931;48.832;9.072;2023-04-03T09:42:57;7.00;99.90
11748;DHT22;5931;48.832;9.072;2023-04-03T09:45:32;6.90;99.90
11748;DHT22;5931;48.832;9.072;2023-04-03T09:50:38;7.50;99.90
11748;DHT22;5931;48.832;9.072;2023-04-03T09:53:06;7.20;99.90
11748;DHT22;5931;48.832;9.072;2023-04-03T09:55:42;7.40;99.90
11748;DHT22;5931;48.832;9.072;2023-04-03T09:58:27;7.80;99.90
11748;DHT22;5931;48.832;9.072;2023-04-03T10:00:57;8.00;99.90
11748;DHT22;5931;48.832;9.072;2023-04-03T10:03:34;7.60;99.90
11748;DHT22;5931;48.832;9.072;2023-04-03T10:06:02;7.90;99.90
11748;DHT22;5931;48.832;9.072;2023-04-03T10:08:33;7.90;99.90
11748;DHT22;5931;48.832;9.072;2023-04-03T10:11:11;7.90;99.90
11748;DHT22;5931;48.832;9.072;2023-04-03T10:13:54;8.00;99.90
11748;DHT22;5931;48.832;9.072;2023-04-03T10:25:11;7.90;99.90
11748;DHT22;5931;48.832;9.072;2023-04-03T10:27:44;7.60;99.90
11748;DHT22;5931;48.832;9.072;2023-04-03T10:30:34;7.40;99.90
11748;DHT22;5931;48.832;9.072;2023-04-03T10:41:46;7.00;99.90
11748;DHT22;5931;48.832;9.072;2023-04-03T10:53:04;7.60;99.90
11748;DHT22;5931;48.832;9.072;2023-04-03T10:58:04;7.20;99.90
11748;DHT22;5931;48.832;9.072;2023-04-03T11:00:48;7.20;99.90
11748;DHT22;5931;48.832;9.072;2023-04-03T11:03:38;7.20;99.90
11748;DHT22;5931;48.832;9.072;2023-04-03T11:06:06;7.20;99.90
11748;DHT22;5931;48.832;9.072;2023-04-03T11:11:06;7.10;99.90
11748;DHT22;5931;48.832;9.072;2023-04-03T11:13:40;6.90;99.90
11748;DHT22;5931;48.832;9.072;2023-04-03T11:16:08;7.20;99.90
11748;DHT22;5931;48.832;9.072;2023-04-03T11:18:44;7.20;99.90
11748;DHT22;5931;48.832;9.072;2023-04-03T11:21:22;7.40;99.90
11748;DHT22;5931;48.832;9.072;2023-04-03T11:23:52;7.50;99.90
11748;DHT22;5931;48.832;9.072;2023-04-03T11:26:23;7.40;99.90
11748;DHT22;5931;48.832;9.072;2023-04-03T11:29:02;7.30;99.90
11748;DHT22;5931;48.832;9.072;2023-04-03T11:34:41;7.40;99.50
11748;DHT22;5931;48.832;9.072;2023-04-03T11:37:33;7.70;99.90
11748;DHT22;5931;48.832;9.072;2023-04-03T11:42:44;7.10;99.70
11748;DHT22;5931;48.832;9.072;2023-04-03T11:47:53;7.30;99.90
11748;DHT22;5931;48.832;9.072;2023-04-03T11:53:10;7.30;99.90
11748;DHT22;5931;48.832;9.072;2023-04-03T11:58:22;7.60;99.90
11748;DHT22;5931;48.832;9.072;2023-04-03T12:16:27;7.20;99.90
11748;DHT22;5931;48.832;9.072;2023-04-03T12:24:04;8.00;99.80
11748;DHT22;5931;48.832;9.072;2023-04-03T12:40:24;8.10;96.60
11748;DHT22;5931;48.832;9.072;2023-04-03T12:45:23;8.10;96.10
11748;DHT22;5931;48.832;9.072;2023-04-03T12:47:52;8.30;96.90
11748;DHT22;5931;48.832;9.072;2023-04-03T12:50:28;8.60;95.80
11748;DHT22;5931;48.832;9.072;2023-04-03T12:53:11;9.20;97.50
11748;DHT22;5931;48.832;9.072;2023-04-03T12:55:38;9.60;97.60
11748;DHT22;5931;48.832;9.072;2023-04-03T12:58:24;9.30;95.70
11748;DHT22;5931;48.832;9.072;2023-04-03T13:01:09;8.70;95.10
11748;DHT22;5931;48.832;9.072;2023-04-03T13:03:39;8.10;95.70
11748;DHT22;5931;48.832;9.072;2023-04-03T13:06:06;8.10;96.70
11748;DHT22;5931;48.832;9.072;2023-04-03T13:08:32;8.00;96.50
11748;DHT22;5931;48.832;9.072;2023-04-03T13:11:03;8.30;99.00
11748;DHT22;5931;48.832;9.072;2023-04-03T13:13:31;8.50;97.20
11748;DHT22;5931;48.832;9.072;2023-04-03T13:15:57;8.60;97.50
11748;DHT22;5931;48.832;9.072;2023-04-03T13:18:33;8.70;97.00
11748;DHT22;5931;48.832;9.072;2023-04-03T13:21:10;8.40;96.10
11748;DHT22;5931;48.832;9.072;2023-04-03T13:23:39;8.30;97.30
11748;DHT22;5931;48.832;9.072;2023-04-03T13:26:06;8.20;95.60
11748;DHT22;5931;48.832;9.072;2023-04-03T13:28:33;8.20;95.70
11748;DHT22;5931;48.832;9.072;2023-04-03T13:31:04;7.90;95.90
11748;DHT22;5931;48.832;9.072;2023-04-03T13:33:33;7.70;96.60
11748;DHT22;5931;48.832;9.072;2023-04-03T13:36:15;7.80;97.80
11748;DHT22;5931;48.832;9.072;2023-04-03T13:38:41;7.80;97.20
11748;DHT22;5931;48.832;9.072;2023-04-03T13:43:54;8.20;98.30
11748;DHT22;5931;48.832;9.072;2023-04-03T13:46:25;8.60;97.40
11748;DHT22;5931;48.832;9.072;2023-04-03T13:48:53;8.90;97.30
11748;DHT22;5931;48.832;9.072;2023-04-03T13:51:28;9.20;95.30
11748;DHT22;5931;48.832;9.072;2023-04-03T13:54:00;9.40;94.40
11748;DHT22;5931;48.832;9.072;2023-04-03T13:56:29;9.20;94.40
11748;DHT22;5931;48.832;9.072;2023-04-03T14:04:28;9.10;94.10
11748;DHT22;5931;48.832;9.072;2023-04-03T14:06:54;9.40;94.50
11748;DHT22;5931;48.832;9.072;2023-04-03T14:09:22;9.30;94.00
11748;DHT22;5931;48.832;9.072;2023-04-03T14:11:52;8.60;93.10
11748;DHT22;5931;48.832;9.072;2023-04-03T14:14:26;8.40;93.10
11748;DHT22;5931;48.832;9.072;2023-04-03T14:16:55;8.40;93.80
11748;DHT22;5931;48.832;9.072;2023-04-03T14:19:30;8.70;94.00
11748;DHT22;5931;48.832;9.072;2023-04-03T14:21:58;8.80;94.10
11748;DHT22;5931;48.832;9.072;2023-04-03T14:24:24;8.90;93.80
11748;DHT22;5931;48.832;9.072;2023-04-03T14:26:51;8.90;93.90
11748;DHT22;5931;48.832;9.072;2023-04-03T14:29:18;8.70;94.40
11748;DHT22;5931;48.832;9.072;2023-04-03T14:31:45;8.50;93.70
11748;DHT22;5931;48.832;9.072;2023-04-03T14:34:12;8.70;94.80
11748;DHT22;5931;48.832;9.072;2023-04-03T14:36:39;8.60;94.00
11748;DHT22;5931;48.832;9.072;2023-04-03T14:39:05;8.50;94.40
11748;DHT22;5931;48.832;9.072;2023-04-03T14:41:32;8.50;93.60
11748;DHT22;5931;48.832;9.072;2023-04-03T14:43:57;8.00;93.30
11748;DHT22;5931;48.832;9.072;2023-04-03T14:46:32;8.00;94.40
11748;DHT22;5931;48.832;9.072;2023-04-03T14:48:58;7.80;93.20
11748;DHT22;5931;48.832;9.072;2023-04-03T14:51:25;8.00;93.90
11748;DHT22;5931;48.832;9.072;2023-04-03T14:53:51;8.30;95.40
11748;DHT22;5931;48.832;9.072;2023-04-03T14:56:20;8.30;93.00
11748;DHT22;5931;48.832;9.072;2023-04-03T14:58:48;8.40;93.40
11748;DHT22;5931;48.832;9.072;2023-04-03T15:01:17;8.10;92.00
11748;DHT22;5931;48.832;9.072;2023-04-03T15:03:46;8.40;92.70
11748;DHT22;5931;48.832;9.072;2023-04-03T15:06:12;9.00;91.30
11748;DHT22;5931;48.832;9.072;2023-04-03T15:08:39;9.20;91.30
11748;DHT22;5931;48.832;9.072;2023-04-03T15:11:07;8.70;91.10
11748;DHT22;5931;48.832;9.072;2023-04-03T15:13:33;8.30;91.50
11748;DHT22;5931;48.832;9.072;2023-04-03T15:15:59;8.10;91.70
11748;DHT22;5931;48.832;9.072;2023-04-03T15:18:27;8.00;92.70
11748;DHT22;5931;48.832;9.072;2023-04-03T15:20:54;8.40;94.50
11748;DHT22;5931;48.832;9.072;2023-04-03T15:23:20;8.30;93.30
11748;DHT22;5931;48.832;9.072;2023-04-03T15:25:52;8.40;92.20
11748;DHT22;5931;48.832;9.072;2023-04-03T15:30:46;9.40;91.50
11748;DHT22;5931;48.832;9.072;2023-04-03T15:33:12;10.30;88.10
11748;DHT22;5931;48.832;9.072;2023-04-03T15:35:38;10.70;88.30
11748;DHT22;5931;48.832;9.072;2023-04-03T15:38:03;10.80;89.40
11748;DHT22;5931;48.832;9.072;2023-04-03T15:40:29;11.50;90.40
11748;DHT22;5931;48.832;9.072;2023-04-03T15:42:55;11.40;87.00
11748;DHT22;5931;48.832;9.072;2023-04-03T15:45:21;10.60;90.00
11748;DHT22;5931;48.832;9.072;2023-04-03T15:47:47;9.50;91.20
11748;DHT22;5931;48.832;9.072;2023-04-03T15:50:13;8.60;91.90
11748;DHT22;5931;48.832;9.072;2023-04-03T15:52:38;7.90;91.80
11748;DHT22;5931;48.832;9.072;2023-04-03T15:55:04;7.50;92.10
11748;DHT22;5931;48.832;9.072;2023-04-03T15:57:30;7.20;92.30
11748;DHT22;5931;48.832;9.072;2023-04-03T15:59:56;7.20;92.50
11748;DHT22;5931;48.832;9.072;2023-04-03T16:02:22;7.30;92.70
11748;DHT22;5931;48.832;9.072;2023-04-03T16:04:48;7.80;94.20
11748;DHT22;5931;48.832;9.072;2023-04-03T16:07:14;8.70;90.70
11748;DHT22;5931;48.832;9.072;2023-04-03T16:09:39;9.60;89.50
11748;DHT22;5931;48.832;9.072;2023-04-03T16:12:05;9.50;90.00
11748;DHT22;5931;48.832;9.072;2023-04-03T16:14:31;8.90;88.70
11748;DHT22;5931;48.832;9.072;2023-04-03T16:16:58;8.30;90.40
11748;DHT22;5931;48.832;9.072;2023-04-03T16:19:24;8.90;90.30
11748;DHT22;5931;48.832;9.072;2023-04-03T16:21:50;9.60;88.50
11748;DHT22;5931;48.832;9.072;2023-04-03T16:24:15;9.90;87.50
11748;DHT22;5931;48.832;9.072;2023-04-03T16:26:41;10.70;87.70
11748;DHT22;5931;48.832;9.072;2023-04-03T16:29:07;11.40;85.10
11748;DHT22;5931;48.832;9.072;2023-04-03T16:31:32;11.70;87.60
11748;DHT22;5931;48.832;9.072;2023-04-03T16:33:58;10.60;84.70
11748;DHT22;5931;48.832;9.072;2023-04-03T16:36:25;9.70;86.90
11748;DHT22;5931;48.832;9.072;2023-04-03T16:38:51;8.70;88.70
11748;DHT22;5931;48.832;9.072;2023-04-03T16:41:17;8.30;90.80
11748;DHT22;5931;48.832;9.072;2023-04-03T16:43:43;8.00;91.60
11748;DHT22;5931;48.832;9.072;2023-04-03T16:46:08;8.10;91.70
11748;DHT22;5931;48.832;9.072;2023-04-03T16:48:34;8.20;91.20
11748;DHT22;5931;48.832;9.072;2023-04-03T16:51:00;7.80;91.50
11748;DHT22;5931;48.832;9.072;2023-04-03T16:53:26;7.70;92.60
11748;DHT22;5931;48.832;9.072;2023-04-03T16:55:52;7.40;92.30
11748;DHT22;5931;48.832;9.072;2023-04-03T16:58:19;7.20;92.00
11748;DHT22;5931;48.832;9.072;2023-04-03T17:00:44;7.00;92.20
11748;DHT22;5931;48.832;9.072;2023-04-03T17:03:12;6.90;93.20
11748;DHT22;5931;48.832;9.072;2023-04-03T17:05:38;6.70;93.10
11748;DHT22;5931;48.832;9.072;2023-04-03T17:08:04;6.50;93.10
11748;DHT22;5931;48.832;9.072;2023-04-03T17:10:29;6.40;93.90
11748;DHT22;5931;48.832;9.072;2023-04-03T17:12:55;6.30;94.30
11748;DHT22;5931;48.832;9.072;2023-04-03T17:15:21;6.20;93.60
11748;DHT22;5931;48.832;9.072;2023-04-03T17:17:51;6.00;93.70
11748;DHT22;5931;48.832;9.072;2023-04-03T17:20:17;6.00;94.20
11748;DHT22;5931;48.832;9.072;2023-04-03T17:22:43;5.90;93.90
11748;DHT22;5931;48.832;9.072;2023-04-03T17:25:10;5.90;94.30
11748;DHT22;5931;48.832;9.072;2023-04-03T17:27:35;5.80;94.90
11748;DHT22;5931;48.832;9.072;2023-04-03T17:30:01;5.80;94.50
11748;DHT22;5931;48.832;9.072;2023-04-03T17:32:27;5.70;94.90
11748;DHT22;5931;48.832;9.072;2023-04-03T17:34:53;5.70;95.10
11748;DHT22;5931;48.832;9.072;2023-04-03T17:37:18;5.70;95.60
11748;DHT22;5931;48.832;9.072;2023-04-03T17:39:44;5.70;95.80
11748;DHT22;5931;48.832;9.072;2023-04-03T17:42:11;5.60;95.50
11748;DHT22;5931;48.832;9.072;2023-04-03T17:44:37;5.50;95.80
11748;DHT22;5931;48.832;9.072;2023-04-03T17:47:03;5.50;96.00
11748;DHT22;5931;48.832;9.072;2023-04-03T17:49:29;5.40;95.90
11748;DHT22;5931;48.832;9.072;2023-04-03T17:51:54;5.30;96.20
11748;DHT22;5931;48.832;9.072;2023-04-03T17:54:20;5.30;95.80
11748;DHT22;5931;48.832;9.072;2023-04-03T17:56:46;5.20;95.90
11748;DHT22;5931;48.832;9.072;2023-04-03T17:59:16;5.10;96.10
11748;DHT22;5931;48.832;9.072;2023-04-03T18:01:43;5.00;96.10
11748;DHT22;5931;48.832;9.072;2023-04-03T18:04:09;5.00;96.90
11748;DHT22;5931;48.832;9.072;2023-04-03T18:06:47;4.90;96.90
11748;DHT22;5931;48.832;9.072;2023-04-03T18:09:24;4.90;96.80